sensor_id;sensor_type;location;lat;lon;timestamp;pressure;altitude;pressure_sealevel;temperature;humidity
12475;BME280;6302;42.624;23.334;2023-11-21T00:00:26;93091.09;;;5.99;100.00
12475;BME280;6302;42.624;23.334;2023-11-21T00:02:54;93093.38;;;6.04;100.00
12475;BME280;6302;42.624;23.334;2023-11-21T00:05:21;93094.16;;;6.04;100.00
12475;BME280;6302;42.624;23.334;2023-11-21T00:07:48;93094.16;;;6.08;100.00
12475;BME280;6302;42.624;23.334;2023-11-21T00:10:16;93097.16;;;6.06;100.00
12475;BME280;6302;42.624;23.334;2023-11-21T00:12:43;93079.47;;;6.03;100.00
12475;BME280;6302;42.624;23.334;2023-11-21T00:15:10;93085.13;;;6.02;100.00
12475;BME280;6302;42.624;23.334;2023-11-21T00:17:37;93099.38;;;6.01;100.00
12475;BME280;6302;42.624;23.334;2023-11-21T00:20:07;93096.38;;;5.99;100.00
12475;BME280;6302;42.624;23.334;2023-11-21T00:22:38;93100.88;;;5.95;100.00
12475;BME280;6302;42.624;23.334;2023-11-21T00:25:06;93087.69;;;5.87;100.00
12475;BME280;6302;42.624;23.334;2023-11-21T00:27:34;93083.16;;;5.88;100.00
12475;BME280;6302;42.624;23.334;2023-11-21T00:30:01;93083.06;;;5.77;100.00
12475;BME280;6302;42.624;23.334;2023-11-21T00:32:29;93086.38;;;5.71;100.00
12475;BME280;6302;42.624;23.334;2023-11-21T00:34:56;93084.91;;;5.70;100.00
12475;BME280;6302;42.624;23.334;2023-11-21T00:37:24;93069.13;;;5.70;100.00
12475;BME280;6302;42.624;23.334;2023-11-21T00:39:51;93074.38;;;5.73;100.00
12475;BME280;6302;42.624;23.334;2023-11-21T00:42:18;93071.38;;;5.71;100.00
12475;BME280;6302;42.624;23.334;2023-11-21T00:44:44;93066.06;;;5.64;100.00
12475;BME280;6302;42.624;23.334;2023-11-21T00:47:11;93084.16;;;5.73;100.00
12475;BME280;6302;42.624;23.334;2023-11-21T00:49:38;93098.44;;;5.75;100.00
12475;BME280;6302;42.624;23.334;2023-11-21T00:52:06;93089.44;;;5.76;100.00
12475;BME280;6302;42.624;23.334;2023-11-21T00:54:34;93086.03;;;5.72;100.00
12475;BME280;6302;42.624;23.334;2023-11-21T00:57:01;93088.31;;;5.77;100.00
12475;BME280;6302;42.624;23.334;2023-11-21T00:59:28;93074.78;;;5.75;100.00
12475;BME280;6302;42.624;23.334;2023-11-21T01:01:55;93065.00;;;5.76;100.00
12475;BME280;6302;42.624;23.334;2023-11-21T01:04:25;93074.03;;;5.75;100.00
12475;BME280;6302;42.624;23.334;2023-11-21T01:06:52;93075.53;;;5.76;100.00
12475;BME280;6302;42.624;23.334;2023-11-21T01:09:19;93074.72;;;5.68;100.00
12475;BME280;6302;42.624;23.334;2023-11-21T01:11:47;93068.72;;;5.68;100.00
12475;BME280;6302;42.624;23.334;2023-11-21T01:14:14;93064.59;;;5.67;100.00
12475;BME280;6302;42.624;23.334;2023-11-21T01:16:43;93060.44;;;5.62;100.00
12475;BME280;6302;42.624;23.334;2023-11-21T01:19:09;93066.03;;;5.57;100.00
12475;BME280;6302;42.624;23.334;2023-11-21T01:21:36;93078.00;;;5.51;100.00
12475;BME280;6302;42.624;23.334;2023-11-21T01:24:04;93083.97;;;5.48;100.00
12475;BME280;6302;42.624;23.334;2023-11-21T01:26:32;93078.66;;;5.38;100.00
12475;BME280;6302;42.624;23.334;2023-11-21T01:29:00;93082.38;;;5.33;100.00
12475;BME280;6302;42.624;23.334;2023-11-21T01:31:27;93079.31;;;5.31;100.00
12475;BME280;6302;42.624;23.334;2023-11-21T01:33:55;93073.34;;;5.31;100.00
12475;BME280;6302;42.624;23.334;2023-11-21T01:36:21;93071.06;;;5.29;100.00
12475;BME280;6302;42.624;23.334;2023-11-21T01:38:48;93063.50;;;5.24;100.00
12475;BME280;6302;42.624;23.334;2023-11-21T01:41:15;93064.66;;;5.23;100.00
12475;BME280;6302;42.624;23.334;2023-11-21T01:43:42;93067.94;;;5.13;100.00
12475;BME280;6302;42.624;23.334;2023-11-21T01:46:10;93070.19;;;5.11;100.00
12475;BME280;6302;42.624;23.334;2023-11-21T01:48:37;93073.91;;;5.10;100.00
12475;BME280;6302;42.624;23.334;2023-11-21T01:51:05;93070.91;;;5.08;100.00
12475;BME280;6302;42.624;23.334;2023-11-21T01:53:32;93039.59;;;4.89;100.00
12475;BME280;6302;42.624;23.334;2023-11-21T01:55:58;93055.44;;;4.99;100.00
12475;BME280;6302;42.624;23.334;2023-11-21T01:58:25;93059.53;;;4.97;100.00
12475;BME280;6302;42.624;23.334;2023-11-21T02:00:52;93059.13;;;4.91;100.00
12475;BME280;6302;42.624;23.334;2023-11-21T02:03:21;93055.25;;;4.82;100.00
12475;BME280;6302;42.624;23.334;2023-11-21T02:05:48;93056.38;;;4.81;100.00
12475;BME280;6302;42.624;23.334;2023-11-21T02:08:15;93062.41;;;4.85;100.00
12475;BME280;6302;42.624;23.334;2023-11-21T02:10:42;93071.44;;;4.84;100.00
12475;BME280;6302;42.624;23.334;2023-11-21T02:13:09;93059.72;;;4.78;100.00
12475;BME280;6302;42.624;23.334;2023-11-21T02:15:36;93069.84;;;4.79;100.00
12475;BME280;6302;42.624;23.334;2023-11-21T02:18:04;93066.88;;;4.81;100.00
12475;BME280;6302;42.624;23.334;2023-11-21T02:20:33;93059.34;;;4.79;100.00
12475;BME280;6302;42.624;23.334;2023-11-21T02:23:03;93063.47;;;4.77;100.00
12475;BME280;6302;42.624;23.334;2023-11-21T02:25:32;93057.81;;;4.75;100.00
12475;BME280;6302;42.624;23.334;2023-11-21T02:28:00;93051.06;;;4.74;100.00
12475;BME280;6302;42.624;23.334;2023-11-21T02:30:27;93063.78;;;4.72;100.00
12475;BME280;6302;42.624;23.334;2023-11-21T02:32:55;93060.75;;;4.70;100.00
12475;BME280;6302;42.624;23.334;2023-11-21T02:35:23;93054.41;;;4.71;100.00
12475;BME280;6302;42.624;23.334;2023-11-21T02:37:51;93050.25;;;4.70;100.00
12475;BME280;6302;42.624;23.334;2023-11-21T02:40:19;93050.25;;;4.70;100.00
12475;BME280;6302;42.624;23.334;2023-11-21T02:42:47;93057.03;;;4.71;100.00
12475;BME280;6302;42.624;23.334;2023-11-21T02:45:14;93063.00;;;4.68;100.00
12475;BME280;6302;42.624;23.334;2023-11-21T02:47:42;93059.28;;;4.69;100.00
12475;BME280;6302;42.624;23.334;2023-11-21T02:50:09;93057.75;;;4.68;100.00
12475;BME280;6302;42.624;23.334;2023-11-21T02:52:36;93051.75;;;4.67;100.00
12475;BME280;6302;42.624;23.334;2023-11-21T02:55:03;93055.88;;;4.68;100.00
12475;BME280;6302;42.624;23.334;2023-11-21T02:57:31;93046.41;;;4.60;100.00
12475;BME280;6302;42.624;23.334;2023-11-21T02:59:58;93057.72;;;4.64;100.00
12475;BME280;6302;42.624;23.334;2023-11-21T03:02:25;93046.09;;;4.62;100.00
12475;BME280;6302;42.624;23.334;2023-11-21T03:04:52;93046.47;;;4.64;100.00
12475;BME280;6302;42.624;23.334;2023-11-21T03:07:19;93043.09;;;4.63;100.00
12475;BME280;6302;42.624;23.334;2023-11-21T03:09:46;93038.53;;;4.56;100.00
12475;BME280;6302;42.624;23.334;2023-11-21T03:12:12;93049.81;;;4.60;100.00
12475;BME280;6302;42.624;23.334;2023-11-21T03:14:41;93040.41;;;4.59;100.00
12475;BME280;6302;42.624;23.334;2023-11-21T03:17:07;93036.28;;;4.58;100.00
12475;BME280;6302;42.624;23.334;2023-11-21T03:19:34;93044.16;;;4.58;100.00
12475;BME280;6302;42.624;23.334;2023-11-21T03:22:01;93063.63;;;4.57;100.00
12475;BME280;6302;42.624;23.334;2023-11-21T03:24:29;93052.38;;;4.57;100.00
12475;BME280;6302;42.624;23.334;2023-11-21T03:26:56;93063.63;;;4.57;100.00
12475;BME280;6302;42.624;23.334;2023-11-21T03:29:23;93062.16;;;4.60;100.00
12475;BME280;6302;42.624;23.334;2023-11-21T03:31:51;93061.41;;;4.59;100.00
12475;BME280;6302;42.624;23.334;2023-11-21T03:34:23;93061.81;;;4.62;100.00
12475;BME280;6302;42.624;23.334;2023-11-21T03:36:51;93055.44;;;4.63;100.00
12475;BME280;6302;42.624;23.334;2023-11-21T03:39:18;93061.47;;;4.63;100.00
12475;BME280;6302;42.624;23.334;2023-11-21T03:41:45;93063.72;;;4.65;100.00
12475;BME280;6302;42.624;23.334;2023-11-21T03:44:13;93068.56;;;4.63;100.00
12475;BME280;6302;42.624;23.334;2023-11-21T03:46:40;93043.47;;;4.62;100.00
12475;BME280;6302;42.624;23.334;2023-11-21T03:49:08;93041.19;;;4.60;100.00
12475;BME280;6302;42.624;23.334;2023-11-21T03:51:36;93053.19;;;4.61;100.00
12475;BME280;6302;42.624;23.334;2023-11-21T03:54:03;93036.31;;;4.62;100.00
12475;BME280;6302;42.624;23.334;2023-11-21T03:56:30;93034.06;;;4.60;100.00
12475;BME280;6302;42.624;23.334;2023-11-21T03:58:57;93032.19;;;4.61;100.00
12475;BME280;6302;42.624;23.334;2023-11-21T04:01:24;93031.06;;;4.58;100.00
12475;BME280;6302;42.624;23.334;2023-11-21T04:03:51;93039.63;;;4.55;100.00
12475;BME280;6302;42.624;23.334;2023-11-21T04:06:19;93029.91;;;4.56;100.00
12475;BME280;6302;42.624;23.334;2023-11-21T04:08:46;93029.53;;;4.57;100.00
12475;BME280;6302;42.624;23.334;2023-11-21T04:11:13;93020.88;;;4.53;100.00
12475;BME280;6302;42.624;23.334;2023-11-21T04:13:41;93021.66;;;4.57;100.00
12475;BME280;6302;42.624;23.334;2023-11-21T04:16:09;93014.91;;;4.56;100.00
12475;BME280;6302;42.624;23.334;2023-11-21T04:18:36;93024.31;;;4.61;100.00
12475;BME280;6302;42.624;23.334;2023-11-21T04:21:04;93027.72;;;4.62;100.00
12475;BME280;6302;42.624;23.334;2023-11-21T04:23:33;93019.41;;;4.59;100.00
12475;BME280;6302;42.624;23.334;2023-11-21T04:26:00;93002.44;;;4.46;100.00
12475;BME280;6302;42.624;23.334;2023-11-21T04:28:28;93020.94;;;4.60;100.00
12475;BME280;6302;42.624;23.334;2023-11-21T04:30:56;93031.81;;;4.63;100.00
12475;BME280;6302;42.624;23.334;2023-11-21T04:33:22;93011.13;;;4.54;100.00
12475;BME280;6302;42.624;23.334;2023-11-21T04:35:50;93022.84;;;4.64;100.00
12475;BME280;6302;42.624;23.334;2023-11-21T04:38:17;93028.50;;;4.66;100.00
12475;BME280;6302;42.624;23.334;2023-11-21T04:40:45;93021.72;;;4.65;100.00
12475;BME280;6302;42.624;23.334;2023-11-21T04:43:12;93013.84;;;4.65;100.00
12475;BME280;6302;42.624;23.334;2023-11-21T04:45:39;93029.97;;;4.63;100.00
12475;BME280;6302;42.624;23.334;2023-11-21T04:48:07;93026.97;;;4.65;100.00
12475;BME280;6302;42.624;23.334;2023-11-21T04:50:33;93030.72;;;4.64;100.00
12475;BME280;6302;42.624;23.334;2023-11-21T04:53:00;93035.25;;;4.67;100.00
12475;BME280;6302;42.624;23.334;2023-11-21T04:55:27;93029.97;;;4.63;100.00
12475;BME280;6302;42.624;23.334;2023-11-21T04:57:55;93035.28;;;4.70;100.00
12475;BME280;6302;42.624;23.334;2023-11-21T05:00:22;93029.25;;;4.70;100.00
12475;BME280;6302;42.624;23.334;2023-11-21T05:02:49;93036.38;;;4.69;100.00
12475;BME280;6302;42.624;23.334;2023-11-21T05:05:16;93036.03;;;4.71;100.00
12475;BME280;6302;42.624;23.334;2023-11-21T05:07:43;93040.56;;;4.74;100.00
12475;BME280;6302;42.624;23.334;2023-11-21T05:10:09;93049.56;;;4.73;100.00
12475;BME280;6302;42.624;23.334;2023-11-21T05:12:37;93020.94;;;4.60;100.00
12475;BME280;6302;42.624;23.334;2023-11-21T05:15:07;93009.00;;;4.67;100.00
12475;BME280;6302;42.624;23.334;2023-11-21T05:17:36;93026.31;;;4.75;100.00
12475;BME280;6302;42.624;23.334;2023-11-21T05:20:05;93024.81;;;4.74;100.00
12475;BME280;6302;42.624;23.334;2023-11-21T05:22:33;93025.22;;;4.76;100.00
12475;BME280;6302;42.624;23.334;2023-11-21T05:25:00;93012.03;;;4.72;100.00
12475;BME280;6302;42.624;23.334;2023-11-21T05:27:28;93024.09;;;4.77;100.00
12475;BME280;6302;42.624;23.334;2023-11-21T05:29:55;93033.88;;;4.80;100.00
12475;BME280;6302;42.624;23.334;2023-11-21T05:32:23;93030.13;;;4.81;100.00
12475;BME280;6302;42.624;23.334;2023-11-21T05:34:50;93034.63;;;4.80;100.00
12475;BME280;6302;42.624;23.334;2023-11-21T05:37:17;93030.13;;;4.81;100.00
12475;BME280;6302;42.624;23.334;2023-11-21T05:39:44;93039.50;;;4.82;100.00
12475;BME280;6302;42.624;23.334;2023-11-21T05:42:10;93038.41;;;4.83;100.00
12475;BME280;6302;42.624;23.334;2023-11-21T05:44:42;93040.66;;;4.84;100.00
12475;BME280;6302;42.624;23.334;2023-11-21T05:47:09;93047.84;;;4.91;100.00
12475;BME280;6302;42.624;23.334;2023-11-21T05:49:38;93043.00;;;4.96;100.00
12475;BME280;6302;42.624;23.334;2023-11-21T05:52:05;93047.19;;;5.01;100.00
12475;BME280;6302;42.624;23.334;2023-11-21T05:54:32;93043.44;;;5.02;100.00
12475;BME280;6302;42.624;23.334;2023-11-21T05:56:59;93037.09;;;5.03;100.00
12475;BME280;6302;42.624;23.334;2023-11-21T05:59:26;93017.50;;;4.97;100.00
12475;BME280;6302;42.624;23.334;2023-11-21T06:01:52;93029.22;;;5.03;100.00
12475;BME280;6302;42.624;23.334;2023-11-21T06:04:19;93035.94;;;5.04;100.00
12475;BME280;6302;42.624;23.334;2023-11-21T06:06:51;93039.34;;;5.04;100.00
12475;BME280;6302;42.624;23.334;2023-11-21T06:09:18;93035.56;;;5.02;100.00
12475;BME280;6302;42.624;23.334;2023-11-21T06:11:45;93037.03;;;4.96;100.00
12475;BME280;6302;42.624;23.334;2023-11-21T06:14:11;93045.69;;;5.00;100.00
12475;BME280;6302;42.624;23.334;2023-11-21T06:16:38;93052.84;;;5.03;100.00
12475;BME280;6302;42.624;23.334;2023-11-21T06:19:06;93050.59;;;5.05;100.00
12475;BME280;6302;42.624;23.334;2023-11-21T06:21:33;93053.63;;;5.07;100.00
12475;BME280;6302;42.624;23.334;2023-11-21T06:24:02;93059.63;;;5.07;100.00
12475;BME280;6302;42.624;23.334;2023-11-21T06:26:29;93053.59;;;5.03;100.00
12475;BME280;6302;42.624;23.334;2023-11-21T06:28:57;93057.34;;;5.02;100.00
12475;BME280;6302;42.624;23.334;2023-11-21T06:31:23;93063.34;;;5.03;100.00
12475;BME280;6302;42.624;23.334;2023-11-21T06:33:50;93067.13;;;5.09;100.00
12475;BME280;6302;42.624;23.334;2023-11-21T06:36:18;93069.38;;;5.07;100.00
12475;BME280;6302;42.624;23.334;2023-11-21T06:38:44;93067.13;;;5.05;100.00
12475;BME280;6302;42.624;23.334;2023-11-21T06:41:13;93072.47;;;5.16;100.00
12475;BME280;6302;42.624;23.334;2023-11-21T06:43:41;93073.91;;;5.10;100.00
12475;BME280;6302;42.624;23.334;2023-11-21T06:46:11;93069.69;;;5.02;100.00
12475;BME280;6302;42.624;23.334;2023-11-21T06:48:41;93078.38;;;5.06;100.00
12475;BME280;6302;42.624;23.334;2023-11-21T06:51:08;93081.78;;;5.10;100.00
12475;BME280;6302;42.624;23.334;2023-11-21T06:53:37;93068.66;;;5.10;100.00
12475;BME280;6302;42.624;23.334;2023-11-21T06:56:04;93069.81;;;5.12;100.00
12475;BME280;6302;42.624;23.334;2023-11-21T06:58:34;93080.81;;;5.28;100.00
12475;BME280;6302;42.624;23.334;2023-11-21T07:01:01;93083.44;;;5.25;100.00
12475;BME280;6302;42.624;23.334;2023-11-21T07:03:27;93059.78;;;5.25;100.00
12475;BME280;6302;42.624;23.334;2023-11-21T07:05:54;93052.91;;;5.10;100.00
12475;BME280;6302;42.624;23.334;2023-11-21T07:08:21;93081.84;;;5.13;100.00
12475;BME280;6302;42.624;23.334;2023-11-21T07:10:48;93076.97;;;5.15;100.00
12475;BME280;6302;42.624;23.334;2023-11-21T07:13:14;93071.81;;;5.30;100.00
12475;BME280;6302;42.624;23.334;2023-11-21T07:15:42;93071.78;;;5.22;100.00
12475;BME280;6302;42.624;23.334;2023-11-21T07:18:10;93078.63;;;5.34;100.00
12475;BME280;6302;42.624;23.334;2023-11-21T07:20:37;93074.94;;;5.42;100.00
12475;BME280;6302;42.624;23.334;2023-11-21T07:23:03;93070.78;;;5.41;100.00
12475;BME280;6302;42.624;23.334;2023-11-21T07:25:31;93055.75;;;5.38;100.00
12475;BME280;6302;42.624;23.334;2023-11-21T07:27:59;93065.22;;;5.53;100.00
12475;BME280;6302;42.624;23.334;2023-11-21T07:30:26;93078.84;;;5.62;100.00
12475;BME280;6302;42.624;23.334;2023-11-21T07:32:54;93076.59;;;5.64;100.00
12475;BME280;6302;42.624;23.334;2023-11-21T07:35:21;93057.84;;;5.73;100.00
12475;BME280;6302;42.624;23.334;2023-11-21T07:37:48;93068.13;;;5.88;100.00
12475;BME280;6302;42.624;23.334;2023-11-21T07:40:15;93077.06;;;5.80;100.00
12475;BME280;6302;42.624;23.334;2023-11-21T07:42:42;93075.56;;;5.79;100.00
12475;BME280;6302;42.624;23.334;2023-11-21T07:45:09;93070.00;;;5.84;100.00
12475;BME280;6302;42.624;23.334;2023-11-21T07:47:36;93075.28;;;5.92;100.00
12475;BME280;6302;42.624;23.334;2023-11-21T07:50:07;93076.00;;;5.88;100.00
12475;BME280;6302;42.624;23.334;2023-11-21T07:52:34;93064.75;;;5.88;100.00
12475;BME280;6302;42.624;23.334;2023-11-21T07:55:01;93068.97;;;6.00;100.00
12475;BME280;6302;42.624;23.334;2023-11-21T07:57:27;93051.69;;;6.06;100.00
12475;BME280;6302;42.624;23.334;2023-11-21T07:59:54;93052.16;;;6.22;100.00
12475;BME280;6302;42.624;23.334;2023-11-21T08:02:21;93054.34;;;6.13;100.00
12475;BME280;6302;42.624;23.334;2023-11-21T08:04:48;93053.66;;;6.23;100.00
12475;BME280;6302;42.624;23.334;2023-11-21T08:07:17;93045.41;;;6.28;100.00
12475;BME280;6302;42.624;23.334;2023-11-21T08:09:44;93055.16;;;6.24;100.00
12475;BME280;6302;42.624;23.334;2023-11-21T08:12:12;93053.66;;;6.30;100.00
12475;BME280;6302;42.624;23.334;2023-11-21T08:14:40;93051.84;;;6.41;100.00
12475;BME280;6302;42.624;23.334;2023-11-21T08:17:06;93052.59;;;6.45;100.00
12475;BME280;6302;42.624;23.334;2023-11-21T08:19:35;93058.22;;;6.40;100.00
12475;BME280;6302;42.624;23.334;2023-11-21T08:22:02;93064.66;;;6.46;100.00
12475;BME280;6302;42.624;23.334;2023-11-21T08:24:31;93056.41;;;6.58;100.00
12475;BME280;6302;42.624;23.334;2023-11-21T08:26:57;93059.81;;;6.62;100.00
12475;BME280;6302;42.624;23.334;2023-11-21T08:29:24;93070.34;;;6.62;100.00
12475;BME280;6302;42.624;23.334;2023-11-21T08:31:52;93067.34;;;6.67;100.00
12475;BME280;6302;42.624;23.334;2023-11-21T08:34:19;93061.34;;;6.77;100.00
12475;BME280;6302;42.624;23.334;2023-11-21T08:36:45;93060.25;;;6.89;100.00
12475;BME280;6302;42.624;23.334;2023-11-21T08:39:12;93058.38;;;6.89;100.00
12475;BME280;6302;42.624;23.334;2023-11-21T08:41:43;93053.88;;;6.93;100.00
12475;BME280;6302;42.624;23.334;2023-11-21T08:44:10;93055.41;;;7.15;100.00
12475;BME280;6302;42.624;23.334;2023-11-21T08:46:36;93053.50;;;7.16;100.00
12475;BME280;6302;42.624;23.334;2023-11-21T08:49:05;93055.78;;;7.25;100.00
12475;BME280;6302;42.624;23.334;2023-11-21T08:51:32;93053.16;;;7.28;100.00
12475;BME280;6302;42.624;23.334;2023-11-21T08:53:58;93053.91;;;7.36;100.00
12475;BME280;6302;42.624;23.334;2023-11-21T08:56:29;93049.38;;;7.40;100.00
12475;BME280;6302;42.624;23.334;2023-11-21T08:58:57;93051.66;;;7.27;100.00
12475;BME280;6302;42.624;23.334;2023-11-21T09:01:25;93047.13;;;7.35;100.00
12475;BME280;6302;42.624;23.334;2023-11-21T09:03:53;93036.56;;;7.38;100.00
12475;BME280;6302;42.624;23.334;2023-11-21T09:06:19;93030.19;;;7.39;100.00
12475;BME280;6302;42.624;23.334;2023-11-21T09:08:46;93016.59;;;7.41;100.00
12475;BME280;6302;42.624;23.334;2023-11-21T09:11:13;93012.84;;;7.52;100.00
12475;BME280;6302;42.624;23.334;2023-11-21T09:13:40;93000.41;;;7.67;100.00
12475;BME280;6302;42.624;23.334;2023-11-21T09:16:08;93001.88;;;7.78;100.00
12475;BME280;6302;42.624;23.334;2023-11-21T09:18:36;93002.25;;;7.73;100.00
12475;BME280;6302;42.624;23.334;2023-11-21T09:21:03;92995.44;;;7.83;100.00
12475;BME280;6302;42.624;23.334;2023-11-21T09:23:30;92982.25;;;7.83;100.00
12475;BME280;6302;42.624;23.334;2023-11-21T09:25:57;92984.47;;;7.95;100.00
12475;BME280;6302;42.624;23.334;2023-11-21T09:28:26;92969.41;;;7.99;100.00
12475;BME280;6302;42.624;23.334;2023-11-21T09:30:53;92967.91;;;7.87;100.00
12475;BME280;6302;42.624;23.334;2023-11-21T09:33:22;92965.63;;;8.00;100.00
12475;BME280;6302;42.624;23.334;2023-11-21T09:35:50;92952.41;;;8.07;100.00
12475;BME280;6302;42.624;23.334;2023-11-21T09:38:18;92945.19;;;8.22;100.00
12475;BME280;6302;42.624;23.334;2023-11-21T09:40:45;92940.97;;;8.35;100.00
12475;BME280;6302;42.624;23.334;2023-11-21T09:43:16;92951.84;;;8.51;100.00
12475;BME280;6302;42.624;23.334;2023-11-21T09:45:45;92938.19;;;8.60;100.00
12475;BME280;6302;42.624;23.334;2023-11-21T09:48:13;92913.75;;;8.48;100.00
12475;BME280;6302;42.624;23.334;2023-11-21T09:50:43;92914.06;;;8.58;100.00
12475;BME280;6302;42.624;23.334;2023-11-21T09:53:14;92922.31;;;8.67;100.00
12475;BME280;6302;42.624;23.334;2023-11-21T09:55:45;92915.47;;;8.73;100.00
12475;BME280;6302;42.624;23.334;2023-11-21T09:58:13;92916.13;;;8.87;100.00
12475;BME280;6302;42.624;23.334;2023-11-21T10:00:41;92909.25;;;8.97;100.00
12475;BME280;6302;42.624;23.334;2023-11-21T10:03:09;92889.56;;;9.05;100.00
12475;BME280;6302;42.624;23.334;2023-11-21T10:05:36;92893.25;;;9.14;100.00
12475;BME280;6302;42.624;23.334;2023-11-21T10:08:07;92898.47;;;9.22;100.00
12475;BME280;6302;42.624;23.334;2023-11-21T10:10:36;92899.44;;;9.38;100.00
12475;BME280;6302;42.624;23.334;2023-11-21T10:13:05;92900.53;;;9.41;100.00
12475;BME280;6302;42.624;23.334;2023-11-21T10:15:33;92904.34;;;9.40;100.00
12475;BME280;6302;42.624;23.334;2023-11-21T10:18:02;92892.94;;;9.46;100.00
12475;BME280;6302;42.624;23.334;2023-11-21T10:20:32;92898.22;;;9.46;100.00
12475;BME280;6302;42.624;23.334;2023-11-21T10:23:00;92889.84;;;9.55;100.00
12475;BME280;6302;42.624;23.334;2023-11-21T10:25:30;92877.53;;;9.71;100.00
12475;BME280;6302;42.624;23.334;2023-11-21T10:27:58;92871.03;;;9.79;100.00
12475;BME280;6302;42.624;23.334;2023-11-21T10:30:33;92880.38;;;9.88;100.00
12475;BME280;6302;42.624;23.334;2023-11-21T10:33:03;92875.00;;;9.95;100.00
12475;BME280;6302;42.624;23.334;2023-11-21T10:35:42;92885.84;;;9.73;100.00
12475;BME280;6302;42.624;23.334;2023-11-21T10:38:12;92877.56;;;9.68;100.00
12475;BME280;6302;42.624;23.334;2023-11-21T10:40:41;92881.63;;;9.79;100.00
12475;BME280;6302;42.624;23.334;2023-11-21T10:43:08;92881.47;;;9.90;100.00
12475;BME280;6302;42.624;23.334;2023-11-21T10:45:36;92873.16;;;9.92;100.00
12475;BME280;6302;42.624;23.334;2023-11-21T10:48:05;92870.84;;;9.94;100.00
12475;BME280;6302;42.624;23.334;2023-11-21T10:50:33;92869.53;;;10.09;100.00
12475;BME280;6302;42.624;23.334;2023-11-21T10:53:01;92862.66;;;10.15;100.00
12475;BME280;6302;42.624;23.334;2023-11-21T10:55:29;92867.59;;;10.13;100.00
12475;BME280;6302;42.624;23.334;2023-11-21T10:58:00;92863.81;;;10.10;100.00
12475;BME280;6302;42.624;23.334;2023-11-21T11:00:27;92858.19;;;10.08;100.00
12475;BME280;6302;42.624;23.334;2023-11-21T11:02:55;92843.53;;;10.00;100.00
12475;BME280;6302;42.624;23.334;2023-11-21T11:05:23;92853.66;;;10.09;100.00
12475;BME280;6302;42.624;23.334;2023-11-21T11:07:52;92851.34;;;10.11;100.00
12475;BME280;6302;42.624;23.334;2023-11-21T11:10:20;92856.63;;;10.14;100.00
12475;BME280;6302;42.624;23.334;2023-11-21T11:12:48;92850.69;;;10.03;100.00
12475;BME280;6302;42.624;23.334;2023-11-21T11:15:16;92847.66;;;10.05;100.00
12475;BME280;6302;42.624;23.334;2023-11-21T11:17:45;92840.25;;;10.23;100.00
12475;BME280;6302;42.624;23.334;2023-11-21T11:20:13;92825.13;;;10.20;100.00
12475;BME280;6302;42.624;23.334;2023-11-21T11:22:45;92821.13;;;10.08;100.00
12475;BME280;6302;42.624;23.334;2023-11-21T11:25:41;92819.13;;;10.19;100.00
12475;BME280;6302;42.624;23.334;2023-11-21T11:28:16;92817.25;;;10.16;100.00
12475;BME280;6302;42.624;23.334;2023-11-21T11:30:56;92807.78;;;10.19;100.00
12475;BME280;6302;42.624;23.334;2023-11-21T11:33:31;92804.97;;;10.29;100.00
12475;BME280;6302;42.624;23.334;2023-11-21T11:36:06;92808.13;;;10.21;100.00
12475;BME280;6302;42.624;23.334;2023-11-21T11:38:34;92807.22;;;10.31;100.00
12475;BME280;6302;42.624;23.334;2023-11-21T11:41:02;92794.22;;;10.40;100.00
12475;BME280;6302;42.624;23.334;2023-11-21T11:43:30;92793.28;;;10.27;100.00
12475;BME280;6302;42.624;23.334;2023-11-21T11:46:03;92809.41;;;10.36;100.00
12475;BME280;6302;42.624;23.334;2023-11-21T11:48:30;92815.06;;;10.38;100.00
12475;BME280;6302;42.624;23.334;2023-11-21T11:51:03;92781.09;;;10.03;100.00
12475;BME280;6302;42.624;23.334;2023-11-21T11:53:35;92822.47;;;10.23;100.00
12475;BME280;6302;42.624;23.334;2023-11-21T11:56:22;92821.81;;;10.16;100.00
12475;BME280;6302;42.624;23.334;2023-11-21T11:58:51;92809.78;;;10.08;100.00
12475;BME280;6302;42.624;23.334;2023-11-21T12:01:20;92799.53;;;10.10;100.00
12475;BME280;6302;42.624;23.334;2023-11-21T12:04:23;92806.31;;;10.14;100.00
12475;BME280;6302;42.624;23.334;2023-11-21T12:06:55;92811.25;;;10.12;100.00
12475;BME280;6302;42.624;23.334;2023-11-21T12:09:24;92811.22;;;10.16;100.00
12475;BME280;6302;42.624;23.334;2023-11-21T12:11:52;92804.47;;;10.08;100.00
12475;BME280;6302;42.624;23.334;2023-11-21T12:14:20;92810.59;;;10.05;100.00
12475;BME280;6302;42.624;23.334;2023-11-21T12:16:48;92810.41;;;9.89;100.00
12475;BME280;6302;42.624;23.334;2023-11-21T12:19:15;92806.13;;;9.68;100.00
12475;BME280;6302;42.624;23.334;2023-11-21T12:21:42;92817.75;;;9.77;100.00
12475;BME280;6302;42.624;23.334;2023-11-21T12:24:09;92809.50;;;9.72;100.00
12475;BME280;6302;42.624;23.334;2023-11-21T12:26:39;92801.25;;;9.66;100.00
12475;BME280;6302;42.624;23.334;2023-11-21T12:29:05;92802.09;;;9.60;100.00
12475;BME280;6302;42.624;23.334;2023-11-21T12:31:33;92801.69;;;9.61;100.00
12475;BME280;6302;42.624;23.334;2023-11-21T12:34:03;92812.38;;;9.54;100.00
12475;BME280;6302;42.624;23.334;2023-11-21T12:36:32;92818.34;;;9.58;100.00
12475;BME280;6302;42.624;23.334;2023-11-21T12:39:00;92819.50;;;9.57;100.00
12475;BME280;6302;42.624;23.334;2023-11-21T12:41:28;92809.72;;;9.54;100.00
12475;BME280;6302;42.624;23.334;2023-11-21T12:43:55;92807.50;;;9.53;100.00
12475;BME280;6302;42.624;23.334;2023-11-21T12:46:23;92799.94;;;9.51;100.00
12475;BME280;6302;42.624;23.334;2023-11-21T12:48:51;92809.03;;;9.50;100.00
12475;BME280;6302;42.624;23.334;2023-11-21T12:51:21;92793.41;;;9.59;100.00
12475;BME280;6302;42.624;23.334;2023-11-21T12:53:48;92776.44;;;9.57;100.00
12475;BME280;6302;42.624;23.334;2023-11-21T12:56:15;92780.31;;;9.49;100.00
12475;BME280;6302;42.624;23.334;2023-11-21T12:58:45;92782.63;;;9.43;100.00
12475;BME280;6302;42.624;23.334;2023-11-21T13:01:13;92773.16;;;9.46;100.00
12475;BME280;6302;42.624;23.334;2023-11-21T13:03:46;92758.56;;;9.34;100.00